createdAt,value
2022-12-11T00:00:13.388Z,78.78
2022-12-11T00:02:40.400Z,79.14
2022-12-11T00:05:08.078Z,79.47
2022-12-11T00:07:35.428Z,80.23
2022-12-11T00:10:02.382Z,80.54
2022-12-11T00:12:30.834Z,80.16
2022-12-11T00:14:57.875Z,80.04
2022-12-11T00:17:24.857Z,79.32
2022-12-11T00:19:51.878Z,79.43
2022-12-11T00:22:18.863Z,78.83
2022-12-11T00:24:45.777Z,78.71
2022-12-11T00:27:12.649Z,79.73
2022-12-11T00:29:39.616Z,81.41
2022-12-11T00:32:06.751Z,81.43
2022-12-11T00:34:33.896Z,80.29
2022-12-11T00:37:01.217Z,80.06
2022-12-11T00:39:28.070Z,79.30
2022-12-11T00:41:54.999Z,78.88
2022-12-11T00:44:22.077Z,78.97
2022-12-11T00:46:48.886Z,80.37
2022-12-11T00:49:15.984Z,82.35
2022-12-11T00:51:42.807Z,82.86
2022-12-11T00:54:09.860Z,83.00
2022-12-11T00:56:36.810Z,82.82
2022-12-11T00:59:03.853Z,83.10
2022-12-11T01:01:30.866Z,82.71
2022-12-11T01:03:58.021Z,82.43
2022-12-11T01:06:26.754Z,83.08
2022-12-11T01:08:54.484Z,82.63
2022-12-11T01:11:21.254Z,83.41
2022-12-11T01:13:48.292Z,86.34
2022-12-11T01:16:16.229Z,87.91
2022-12-11T01:18:43.203Z,90.10
2022-12-11T01:21:12.983Z,90.83
2022-12-11T01:23:40.812Z,91.19
2022-12-11T01:26:15.412Z,91.57
2022-12-11T01:28:43.155Z,91.24
2022-12-11T01:31:12.211Z,90.01
2022-12-11T01:33:39.432Z,88.67
2022-12-11T01:36:11.704Z,87.86
2022-12-11T01:38:38.570Z,86.18
2022-12-11T01:41:05.932Z,85.52
2022-12-11T01:43:32.834Z,84.73
2022-12-11T01:45:59.732Z,84.56
2022-12-11T01:48:30.378Z,83.37
2022-12-11T01:51:01.655Z,83.61
2022-12-11T01:53:40.551Z,83.38
2022-12-11T01:56:09.274Z,84.49
2022-12-11T01:58:42.222Z,84.19
2022-12-11T02:01:15.415Z,85.34
2022-12-11T02:03:42.261Z,86.68
2022-12-11T02:06:36.849Z,87.66
2022-12-11T02:09:07.694Z,89.32
2022-12-11T02:11:46.516Z,89.76
2022-12-11T02:14:19.032Z,89.99
2022-12-11T02:17:00.088Z,89.25
2022-12-11T02:19:59.117Z,90.30
2022-12-11T02:22:48.008Z,89.32
2022-12-11T02:25:23.707Z,89.43
2022-12-11T02:28:15.638Z,91.33
2022-12-11T02:30:46.682Z,91.36
2022-12-11T02:33:15.654Z,90.97
2022-12-11T02:35:45.847Z,90.35
2022-12-11T02:38:25.826Z,88.57
2022-12-11T02:40:54.922Z,87.94
2022-12-11T02:43:24.122Z,86.89
2022-12-11T02:45:53.155Z,85.93
2022-12-11T02:48:23.102Z,85.49
2022-12-11T02:50:55.699Z,85.31
2022-12-11T02:53:26.561Z,85.53
2022-12-11T02:56:02.391Z,85.04
2022-12-11T02:58:33.897Z,84.68
2022-12-11T03:01:00.939Z,84.89
2022-12-11T03:03:30.387Z,84.58
2022-12-11T03:05:57.480Z,84.43
2022-12-11T03:08:24.551Z,84.50
2022-12-11T03:10:51.357Z,84.25
2022-12-11T03:13:21.680Z,84.21
2022-12-11T03:16:10.054Z,83.71
2022-12-11T03:18:41.199Z,84.89
2022-12-11T03:21:55.704Z,88.05
2022-12-11T03:24:55.272Z,90.85
2022-12-11T03:27:39.797Z,91.95
2022-12-11T03:30:12.836Z,92.50
2022-12-11T03:32:47.914Z,93.59
2022-12-11T03:35:32.311Z,94.41
2022-12-11T03:38:04.437Z,93.38
2022-12-11T03:40:34.582Z,93.12
2022-12-11T03:43:02.530Z,93.02
2022-12-11T03:45:30.699Z,93.22
2022-12-11T03:48:01.715Z,92.37
2022-12-11T03:50:32.372Z,90.85
2022-12-11T03:53:01.850Z,89.42
2022-12-11T03:55:30.750Z,89.49
2022-12-11T03:57:57.645Z,89.24
2022-12-11T04:00:24.817Z,88.69
2022-12-11T04:02:51.798Z,88.88
2022-12-11T04:05:18.700Z,88.95
2022-12-11T04:07:45.702Z,88.76
2022-12-11T04:10:12.594Z,88.15
2022-12-11T04:12:39.638Z,87.12
2022-12-11T04:15:06.864Z,87.00
2022-12-11T04:17:36.778Z,87.28
2022-12-11T04:20:05.355Z,88.72
2022-12-11T04:22:32.199Z,90.92
2022-12-11T04:24:59.350Z,91.61
2022-12-11T04:27:26.564Z,92.25
2022-12-11T04:29:53.519Z,92.21
2022-12-11T04:32:20.356Z,93.21
2022-12-11T04:34:47.286Z,93.81
2022-12-11T04:37:14.176Z,94.09
2022-12-11T04:39:41.031Z,94.19
2022-12-11T04:42:07.996Z,93.84
2022-12-11T04:44:34.809Z,92.72
2022-12-11T04:47:01.744Z,91.79
2022-12-11T04:49:28.556Z,91.42
2022-12-11T04:51:55.557Z,90.73
2022-12-11T04:54:22.507Z,90.19
2022-12-11T04:56:49.702Z,89.47
2022-12-11T04:59:16.572Z,89.82
2022-12-11T05:01:43.510Z,89.40
2022-12-11T05:04:10.367Z,89.50
2022-12-11T05:06:37.646Z,89.14
2022-12-11T05:09:04.623Z,87.95
2022-12-11T05:11:31.594Z,87.88
2022-12-11T05:13:58.508Z,87.59
2022-12-11T05:16:25.470Z,89.51
2022-12-11T05:18:52.303Z,90.34
2022-12-11T05:21:19.211Z,91.04
2022-12-11T05:23:46.069Z,91.92
2022-12-11T05:26:16.383Z,91.65
2022-12-11T05:28:44.469Z,92.48
2022-12-11T05:31:41.371Z,92.70
2022-12-11T05:34:08.197Z,93.02
2022-12-11T05:36:35.202Z,92.20
2022-12-11T05:39:05.427Z,92.37
2022-12-11T05:41:33.054Z,92.16
2022-12-11T05:44:00.779Z,92.16
2022-12-11T05:46:30.380Z,91.97
2022-12-11T05:49:00.982Z,91.02
2022-12-11T05:51:29.042Z,90.12
2022-12-11T05:53:57.290Z,90.47
2022-12-11T05:56:29.166Z,90.45
2022-12-11T05:58:57.243Z,90.43
2022-12-11T06:01:33.570Z,90.21
2022-12-11T06:04:01.368Z,89.92
2022-12-11T06:06:28.967Z,90.09
2022-12-11T06:08:57.638Z,90.32
2022-12-11T06:11:27.024Z,91.26
2022-12-11T06:13:54.147Z,91.22
2022-12-11T06:16:22.354Z,91.12
2022-12-11T06:18:49.702Z,90.91
2022-12-11T06:21:30.180Z,91.15
2022-12-11T06:24:01.336Z,92.05
2022-12-11T06:26:28.763Z,92.17
2022-12-11T06:28:55.814Z,92.68
2022-12-11T06:31:23.182Z,93.03
2022-12-11T06:33:50.728Z,93.56
2022-12-11T06:36:20.303Z,93.61
2022-12-11T06:38:47.607Z,93.24
2022-12-11T06:41:15.758Z,93.02
2022-12-11T06:43:43.209Z,92.45
2022-12-11T06:46:15.572Z,91.92
2022-12-11T06:48:47.295Z,91.71
2022-12-11T06:51:20.031Z,91.60
2022-12-11T06:53:52.211Z,91.31
2022-12-11T06:56:22.452Z,90.64
2022-12-11T06:58:49.680Z,90.14
2022-12-11T07:01:23.049Z,89.36
2022-12-11T07:03:52.461Z,89.02
2022-12-11T07:06:19.773Z,90.55
2022-12-11T07:08:46.681Z,91.30
2022-12-11T07:11:16.169Z,91.80
2022-12-11T07:13:43.660Z,91.09
2022-12-11T07:16:13.501Z,89.97
2022-12-11T07:18:42.325Z,89.28
2022-12-11T07:21:11.930Z,88.67
2022-12-11T07:23:39.011Z,89.16
2022-12-11T07:26:07.820Z,88.90
2022-12-11T07:28:35.040Z,89.14
2022-12-11T07:31:07.419Z,89.16
2022-12-11T07:33:34.574Z,88.86
2022-12-11T07:36:06.230Z,88.69
2022-12-11T07:38:33.374Z,89.20
2022-12-11T07:41:05.004Z,88.91
2022-12-11T07:43:33.494Z,87.46
2022-12-11T07:46:07.127Z,88.17
2022-12-11T07:48:38.299Z,88.52
2022-12-11T07:51:17.027Z,88.67
2022-12-11T07:54:04.755Z,88.23
2022-12-11T07:56:31.905Z,89.07
2022-12-11T07:59:06.623Z,89.31
2022-12-11T08:01:36.009Z,89.54
2022-12-11T08:04:05.188Z,89.86
2022-12-11T08:06:35.805Z,89.99
2022-12-11T08:09:05.945Z,91.20
2022-12-11T08:11:32.988Z,91.26
2022-12-11T08:14:00.590Z,92.17
2022-12-11T08:16:28.195Z,92.56
2022-12-11T08:18:55.455Z,92.79
2022-12-11T08:21:28.259Z,93.28
2022-12-11T08:23:55.572Z,93.67
2022-12-11T08:26:25.768Z,93.85
2022-12-11T08:28:53.682Z,94.12
2022-12-11T08:31:20.904Z,94.04
2022-12-11T08:33:48.835Z,94.24
2022-12-11T08:36:19.105Z,93.85
2022-12-11T08:38:46.323Z,93.96
2022-12-11T08:41:16.293Z,93.41
2022-12-11T08:43:43.867Z,93.86
2022-12-11T08:46:12.262Z,93.76
2022-12-11T08:48:40.831Z,93.08
2022-12-11T08:51:12.477Z,92.60
2022-12-11T08:53:39.748Z,92.41
2022-12-11T08:56:10.402Z,92.29
2022-12-11T08:58:37.897Z,91.86
2022-12-11T09:01:10.213Z,91.95
2022-12-11T09:03:39.229Z,91.06
2022-12-11T09:06:12.295Z,90.87
2022-12-11T09:08:40.034Z,90.03
2022-12-11T09:11:20.236Z,90.51
2022-12-11T09:13:47.132Z,90.18
2022-12-11T09:16:18.324Z,90.34
2022-12-11T09:18:47.767Z,89.86
2022-12-11T09:21:17.323Z,90.48
2022-12-11T09:23:44.413Z,90.65
2022-12-11T09:26:14.585Z,90.12
2022-12-11T09:28:46.602Z,89.93
2022-12-11T09:31:23.450Z,88.93
2022-12-11T09:33:58.823Z,88.81
2022-12-11T09:36:25.885Z,88.07
2022-12-11T09:38:52.950Z,87.82
2022-12-11T09:41:22.721Z,88.04
2022-12-11T09:44:13.468Z,87.04
2022-12-11T09:46:44.447Z,85.87
2022-12-11T09:49:32.312Z,86.88
2022-12-11T09:52:07.308Z,88.13
2022-12-11T09:54:34.391Z,88.78
2022-12-11T09:57:03.917Z,89.97
2022-12-11T09:59:30.967Z,89.68
2022-12-11T10:02:18.956Z,90.28
2022-12-11T10:05:08.476Z,91.12
2022-12-11T10:07:52.036Z,90.83
2022-12-11T10:10:39.628Z,90.35
2022-12-11T10:13:34.773Z,90.85
2022-12-11T10:16:19.588Z,91.42
2022-12-11T10:18:47.827Z,92.40
2022-12-11T10:21:24.994Z,92.66
2022-12-11T10:24:00.730Z,92.51
2022-12-11T10:26:29.656Z,93.22
2022-12-11T10:29:01.136Z,91.77
2022-12-11T10:31:54.738Z,91.49
2022-12-11T10:34:26.535Z,90.97
2022-12-11T10:37:00.259Z,90.87
2022-12-11T10:39:28.099Z,91.65
2022-12-11T10:41:57.080Z,92.44
2022-12-11T10:47:42.347Z,92.93
2022-12-11T10:50:25.069Z,93.14
2022-12-11T10:52:53.360Z,93.46
2022-12-11T10:55:25.807Z,93.27
2022-12-11T10:58:05.691Z,93.96
2022-12-11T11:00:42.290Z,93.30
2022-12-11T11:03:25.052Z,93.14
2022-12-11T11:06:14.383Z,92.02
2022-12-11T11:08:47.014Z,91.13
2022-12-11T11:11:19.583Z,91.17
2022-12-11T11:13:47.050Z,90.95
2022-12-11T11:16:17.955Z,90.09
2022-12-11T11:18:53.115Z,89.29
2022-12-11T11:21:24.255Z,88.38
2022-12-11T11:23:53.906Z,88.84
2022-12-11T11:26:22.613Z,89.69
2022-12-11T11:28:53.019Z,90.08
2022-12-11T11:31:22.968Z,90.17
2022-12-11T11:33:57.102Z,90.63
2022-12-11T11:36:29.780Z,90.53
2022-12-11T11:39:18.103Z,90.28
2022-12-11T11:42:01.055Z,90.49
2022-12-11T11:44:37.164Z,91.42
2022-12-11T11:47:20.025Z,90.89
2022-12-11T11:50:09.023Z,91.15
2022-12-11T11:52:57.854Z,91.80
2022-12-11T11:55:54.474Z,92.14
2022-12-11T11:58:34.042Z,92.37
2022-12-11T12:01:01.305Z,91.66
2022-12-11T12:03:29.769Z,92.42
2022-12-11T12:06:36.007Z,93.85
2022-12-11T12:09:41.803Z,93.75
2022-12-11T12:12:34.232Z,93.57
2022-12-11T12:15:33.934Z,93.32
2022-12-11T12:18:24.515Z,93.78
2022-12-11T12:21:06.228Z,94.08
2022-12-11T12:23:49.873Z,94.43
2022-12-11T12:26:25.639Z,94.14
2022-12-11T12:29:21.659Z,93.92
2022-12-11T12:32:14.743Z,94.02
2022-12-11T12:35:00.504Z,94.31
2022-12-11T12:37:30.373Z,94.36
2022-12-11T12:40:03.754Z,93.75
2022-12-11T12:43:06.075Z,93.28
2022-12-11T12:45:53.176Z,93.37
2022-12-11T12:48:23.129Z,93.13
2022-12-11T12:50:51.583Z,92.22
2022-12-11T12:53:22.935Z,92.60
2022-12-11T12:55:51.307Z,92.86
2022-12-11T13:12:16.010Z,92.95
2022-12-11T13:14:43.229Z,93.24
2022-12-11T13:17:22.102Z,93.11
2022-12-11T13:19:51.617Z,92.43
2022-12-11T13:22:24.148Z,92.24
2022-12-11T13:24:54.004Z,92.00
2022-12-11T13:27:36.404Z,90.40
2022-12-11T13:30:24.097Z,89.56
2022-12-11T13:33:16.163Z,91.01
2022-12-11T13:35:43.514Z,91.89
2022-12-11T13:38:21.431Z,91.22
2022-12-11T13:40:54.835Z,91.32
2022-12-11T13:43:28.921Z,91.96
2022-12-11T13:46:03.768Z,91.85
2022-12-11T13:48:48.005Z,91.99
2022-12-11T13:51:21.218Z,90.91
2022-12-11T13:53:48.675Z,90.78
2022-12-11T13:56:24.401Z,90.15
2022-12-11T13:58:51.466Z,89.71
2022-12-11T14:01:25.169Z,89.82
2022-12-11T14:04:09.388Z,88.81
2022-12-11T14:06:39.338Z,89.15
2022-12-11T14:09:08.334Z,89.32
2022-12-11T14:11:39.306Z,89.78
2022-12-11T14:14:18.533Z,89.96
2022-12-11T14:16:48.800Z,89.88
2022-12-11T14:19:19.766Z,88.94
2022-12-11T14:22:02.021Z,88.63
2022-12-11T14:24:29.936Z,88.31
2022-12-11T14:26:58.175Z,88.01
2022-12-11T14:29:35.321Z,88.25
2022-12-11T14:32:07.567Z,87.03
2022-12-11T14:34:39.809Z,87.95
2022-12-11T14:37:08.534Z,87.60
2022-12-11T14:39:44.623Z,87.62
2022-12-11T14:42:18.056Z,87.91
2022-12-11T14:45:08.228Z,87.88
2022-12-11T14:47:41.599Z,88.02
2022-12-11T14:50:22.811Z,87.61
2022-12-11T14:52:55.670Z,87.36
2022-12-11T14:55:30.161Z,88.12
2022-12-11T14:58:04.944Z,88.53
2022-12-11T15:00:37.251Z,88.33
2022-12-11T15:03:24.046Z,86.39
2022-12-11T15:05:53.306Z,86.86
2022-12-11T15:08:26.748Z,86.91
2022-12-11T15:11:15.699Z,88.45
2022-12-11T15:13:57.240Z,88.08
2022-12-11T15:16:26.921Z,87.85
2022-12-11T15:18:56.134Z,87.36
2022-12-11T15:21:35.635Z,87.39
2022-12-11T15:24:05.598Z,88.03
2022-12-11T15:26:44.400Z,86.66
2022-12-11T15:29:31.361Z,86.83
2022-12-11T15:32:13.644Z,87.02
2022-12-11T15:34:43.320Z,86.51
2022-12-11T15:37:29.597Z,87.56
2022-12-11T15:39:58.908Z,88.24
2022-12-11T15:42:33.372Z,87.89
2022-12-11T15:45:01.232Z,88.21
2022-12-11T15:47:30.637Z,89.28
2022-12-11T15:50:01.228Z,89.16
2022-12-11T15:52:28.472Z,89.18
2022-12-11T15:54:55.229Z,89.18
2022-12-11T15:57:24.946Z,89.21
2022-12-11T15:59:55.581Z,90.00
2022-12-11T16:02:23.081Z,90.03
2022-12-11T16:04:50.486Z,89.92
2022-12-11T16:07:23.867Z,90.23
2022-12-11T16:09:51.673Z,90.24
2022-12-11T16:12:19.120Z,90.25
2022-12-11T16:14:46.994Z,90.64
2022-12-11T16:17:15.796Z,90.45
2022-12-11T16:19:43.730Z,90.45
2022-12-11T16:22:12.642Z,90.82
2022-12-11T16:24:40.822Z,90.17
2022-12-11T16:27:09.068Z,89.48
2022-12-11T16:29:41.636Z,89.50
2022-12-11T16:32:09.317Z,90.91
2022-12-11T16:34:37.139Z,92.05
2022-12-11T16:37:05.504Z,92.42
2022-12-11T16:39:33.100Z,92.59
2022-12-11T16:42:00.285Z,92.53
2022-12-11T16:44:27.635Z,92.06
2022-12-11T16:46:54.994Z,92.23
2022-12-11T16:49:22.766Z,92.09
2022-12-11T16:51:50.713Z,91.72
2022-12-11T16:54:18.250Z,91.56
2022-12-11T16:56:46.265Z,91.66
2022-12-11T16:59:13.350Z,91.75
2022-12-11T17:01:40.400Z,92.03
2022-12-11T17:04:07.666Z,91.57
2022-12-11T17:06:34.865Z,91.01
2022-12-11T17:09:02.325Z,91.29
2022-12-11T17:11:29.451Z,91.15
2022-12-11T17:13:58.228Z,92.55
2022-12-11T17:16:27.210Z,93.40
2022-12-11T17:18:54.453Z,93.76
2022-12-11T17:21:22.875Z,93.21
2022-12-11T17:23:50.860Z,93.20
2022-12-11T17:26:18.412Z,93.38
2022-12-11T17:28:45.833Z,93.16
2022-12-11T17:31:18.090Z,93.10
2022-12-11T17:33:47.078Z,92.27
2022-12-11T17:36:20.468Z,92.32
2022-12-11T17:38:48.691Z,91.33
2022-12-11T17:41:20.695Z,90.98
2022-12-11T17:43:54.167Z,90.28
2022-12-11T17:46:21.470Z,90.36
2022-12-11T17:48:49.767Z,89.42
2022-12-11T17:51:18.480Z,89.86
2022-12-11T17:53:45.572Z,89.80
2022-12-11T17:56:12.820Z,90.90
2022-12-11T17:58:40.057Z,91.79
2022-12-11T18:01:09.658Z,91.16
2022-12-11T18:03:37.816Z,91.58
2022-12-11T18:06:10.610Z,92.41
2022-12-11T18:08:38.732Z,92.47
2022-12-11T18:11:17.146Z,93.13
2022-12-11T18:13:45.709Z,92.41
2022-12-11T18:16:24.591Z,92.37
2022-12-11T18:18:52.274Z,92.67
2022-12-11T18:21:25.813Z,92.27
2022-12-11T18:23:58.576Z,91.63
2022-12-11T18:26:26.110Z,91.71
2022-12-11T18:28:53.980Z,91.29
2022-12-11T18:31:22.213Z,92.45
2022-12-11T18:33:49.675Z,93.02
2022-12-11T18:36:18.631Z,93.68
2022-12-11T18:38:46.572Z,93.72
2022-12-11T18:41:14.891Z,93.44
2022-12-11T18:43:43.039Z,92.77
2022-12-11T18:46:12.239Z,92.46
2022-12-11T18:48:39.615Z,92.63
2022-12-11T18:51:12.324Z,92.22
2022-12-11T18:53:40.195Z,92.47
2022-12-11T18:56:10.500Z,91.80
2022-12-11T18:58:37.631Z,93.29
2022-12-11T19:01:25.991Z,94.69
2022-12-11T19:04:02.654Z,95.90
2022-12-11T19:06:33.240Z,96.67
2022-12-11T19:09:01.203Z,97.10
2022-12-11T19:11:30.744Z,98.43
2022-12-11T19:14:08.372Z,98.41
2022-12-11T19:16:38.205Z,98.14
2022-12-11T19:19:11.518Z,98.39
2022-12-11T19:21:39.404Z,98.90
2022-12-11T19:24:09.296Z,98.84
2022-12-11T19:26:36.543Z,99.01
2022-12-11T19:29:04.438Z,99.96
2022-12-11T19:31:33.153Z,99.69
2022-12-11T19:34:01.189Z,100.00
2022-12-11T19:36:30.548Z,100.00
2022-12-11T19:39:01.564Z,100.00
2022-12-11T19:41:30.694Z,100.00
2022-12-11T19:43:59.112Z,100.00
2022-12-11T19:46:27.338Z,100.00
2022-12-11T19:48:57.139Z,100.00
2022-12-11T19:51:28.631Z,100.00
2022-12-11T19:53:56.246Z,100.00
2022-12-11T19:56:23.815Z,100.00
2022-12-11T19:58:50.931Z,100.00
2022-12-11T20:01:20.224Z,100.00
2022-12-11T20:03:47.290Z,100.00
2022-12-11T20:06:14.439Z,100.00
2022-12-11T20:08:45.878Z,100.00
2022-12-11T20:11:17.917Z,100.00
2022-12-11T20:13:46.997Z,100.00
2022-12-11T20:16:15.712Z,100.00
2022-12-11T20:18:45.421Z,100.00
2022-12-11T20:21:15.713Z,100.00
2022-12-11T20:23:46.974Z,100.00
2022-12-11T20:26:20.297Z,100.00
2022-12-11T20:28:49.786Z,100.00
2022-12-11T20:31:21.605Z,100.00
2022-12-11T20:33:49.863Z,100.00
2022-12-11T20:36:19.375Z,100.00
2022-12-11T20:38:47.035Z,100.00
2022-12-11T20:41:16.763Z,100.00
2022-12-11T20:43:43.732Z,100.00
2022-12-11T20:46:12.917Z,100.00
2022-12-11T20:48:41.685Z,100.00
2022-12-11T20:51:11.289Z,100.00
2022-12-11T20:53:38.964Z,100.00
2022-12-11T20:56:14.188Z,99.93
2022-12-11T20:58:42.012Z,100.00
2022-12-11T21:01:17.071Z,100.00
2022-12-11T21:03:44.142Z,99.43
2022-12-11T21:06:23.331Z,99.00
2022-12-11T21:08:50.210Z,99.37
2022-12-11T21:11:17.227Z,99.24
2022-12-11T21:13:44.196Z,99.24
2022-12-11T21:16:11.560Z,98.95
2022-12-11T21:18:39.348Z,99.40
2022-12-11T21:21:06.490Z,99.42
2022-12-11T21:23:33.846Z,99.15
2022-12-11T21:26:01.042Z,98.82
2022-12-11T21:28:33.586Z,98.86
2022-12-11T21:31:07.267Z,98.92
2022-12-11T21:33:34.289Z,98.54
2022-12-11T21:36:02.716Z,98.74
2022-12-11T21:38:30.062Z,98.02
2022-12-11T21:40:57.910Z,97.71
2022-12-11T21:43:24.834Z,97.40
2022-12-11T21:46:00.833Z,96.56
2022-12-11T21:48:28.900Z,95.97
2022-12-11T21:50:56.179Z,96.41
2022-12-11T21:53:23.176Z,95.98
2022-12-11T21:55:50.117Z,96.34
2022-12-11T21:58:16.968Z,96.82
2022-12-11T22:00:46.056Z,96.50
2022-12-11T22:03:12.930Z,96.19
2022-12-11T22:05:39.845Z,95.82
2022-12-11T22:08:06.711Z,96.15
2022-12-11T22:10:33.737Z,95.59
2022-12-11T22:13:00.586Z,95.86
2022-12-11T22:15:27.537Z,95.31
2022-12-11T22:17:54.384Z,95.61
2022-12-11T22:20:21.402Z,94.61
2022-12-11T22:22:48.400Z,93.11
2022-12-11T22:25:15.568Z,92.99
2022-12-11T22:27:42.530Z,93.30
2022-12-11T22:30:10.360Z,92.27
2022-12-11T22:32:37.372Z,93.14
2022-12-11T22:35:04.808Z,92.98
2022-12-11T22:37:31.588Z,93.68
2022-12-11T22:39:58.766Z,94.21
2022-12-11T22:42:25.664Z,93.81
2022-12-11T22:44:52.507Z,93.72
2022-12-11T22:47:19.387Z,93.64
2022-12-11T22:49:46.291Z,94.16
2022-12-11T22:52:13.478Z,94.36
2022-12-11T22:54:41.541Z,93.72
2022-12-11T22:57:08.742Z,94.19
2022-12-11T22:59:35.787Z,95.75
2022-12-11T23:02:03.176Z,95.27
2022-12-11T23:04:30.279Z,95.17
2022-12-11T23:06:57.259Z,95.78
2022-12-11T23:09:24.179Z,95.62
2022-12-11T23:11:52.780Z,96.16
2022-12-11T23:14:19.990Z,96.28
2022-12-11T23:16:46.868Z,96.38
2022-12-11T23:19:14.334Z,96.10
2022-12-11T23:21:41.575Z,96.00
2022-12-11T23:24:09.024Z,96.67
2022-12-11T23:26:36.238Z,96.97
2022-12-11T23:29:05.283Z,96.76
2022-12-11T23:31:33.007Z,96.98
2022-12-11T23:33:59.976Z,97.31
2022-12-11T23:36:27.864Z,97.45
2022-12-11T23:38:55.324Z,96.88
2022-12-11T23:41:22.911Z,96.32
2022-12-11T23:43:49.788Z,95.97
2022-12-11T23:46:20.488Z,94.88
2022-12-11T23:48:47.432Z,94.89
2022-12-11T23:51:17.392Z,94.26
2022-12-11T23:53:44.528Z,94.48
2022-12-11T23:56:15.653Z,94.84
2022-12-11T23:58:42.614Z,94.08
